createdAt,value
2022-11-02T00:00:41.087Z,3.65
2022-11-02T00:03:08.113Z,3.50
2022-11-02T00:05:35.159Z,3.13
2022-11-02T00:08:01.688Z,3.53
2022-11-02T00:10:29.848Z,3.40
2022-11-02T00:12:56.603Z,3.28
2022-11-02T00:15:25.338Z,3.97
2022-11-02T00:17:55.952Z,3.30
2022-11-02T00:20:22.907Z,3.72
2022-11-02T00:22:53.060Z,3.40
2022-11-02T00:25:23.211Z,3.72
2022-11-02T00:27:49.672Z,3.60
2022-11-02T00:30:16.226Z,3.10
2022-11-02T00:32:42.646Z,3.50
2022-11-02T00:35:10.160Z,3.22
2022-11-02T00:37:36.698Z,3.10
2022-11-02T00:40:04.104Z,3.22
2022-11-02T00:42:30.500Z,3.25
2022-11-02T00:44:56.885Z,3.20
2022-11-02T00:47:23.327Z,3.60
2022-11-02T00:49:49.734Z,2.78
2022-11-02T00:52:16.153Z,3.35
2022-11-02T00:54:42.666Z,3.25
2022-11-02T00:57:09.462Z,3.67
2022-11-02T00:59:35.875Z,3.05
2022-11-02T01:02:02.332Z,3.63
2022-11-02T01:04:28.824Z,3.50
2022-11-02T01:06:55.461Z,3.72
2022-11-02T01:09:21.894Z,3.30
2022-11-02T01:11:48.374Z,4.05
2022-11-02T01:14:14.803Z,3.50
2022-11-02T01:16:41.588Z,4.93
2022-11-02T01:19:08.262Z,4.38
2022-11-02T01:21:34.711Z,4.05
2022-11-02T01:24:01.150Z,4.07
2022-11-02T01:26:27.697Z,3.88
2022-11-02T01:28:54.903Z,4.50
2022-11-02T01:31:21.974Z,3.70
2022-11-02T01:33:48.519Z,4.05
2022-11-02T01:36:19.946Z,3.80
2022-11-02T01:38:46.903Z,3.72
2022-11-02T01:41:13.856Z,4.20
2022-11-02T01:43:45.960Z,4.75
2022-11-02T01:46:12.552Z,4.43
2022-11-02T01:48:47.658Z,3.75
2022-11-02T01:51:20.028Z,4.72
2022-11-02T01:53:49.581Z,3.65
2022-11-02T01:56:20.192Z,4.20
2022-11-02T01:58:54.629Z,4.00
2022-11-02T02:01:21.299Z,3.47
2022-11-02T02:03:48.951Z,3.90
2022-11-02T02:06:15.944Z,2.83
2022-11-02T02:08:46.438Z,3.42
2022-11-02T02:11:30.563Z,2.85
2022-11-02T02:14:00.992Z,3.05
2022-11-02T02:16:35.793Z,3.47
2022-11-02T02:19:15.730Z,3.40
2022-11-02T02:21:57.398Z,3.70
2022-11-02T02:24:45.330Z,3.33
2022-11-02T02:27:18.810Z,3.00
2022-11-02T02:29:53.847Z,3.42
2022-11-02T02:32:31.006Z,3.30
2022-11-02T02:35:08.483Z,3.05
2022-11-02T02:37:43.307Z,3.10
2022-11-02T02:40:22.513Z,2.88
2022-11-02T02:43:03.646Z,2.97
2022-11-02T02:45:37.408Z,3.40
2022-11-02T02:48:11.634Z,3.60
2022-11-02T02:50:46.023Z,3.33
2022-11-02T02:53:14.787Z,3.40
2022-11-02T02:55:45.178Z,3.30
2022-11-02T02:58:23.044Z,4.28
2022-11-02T03:00:49.817Z,3.20
2022-11-02T03:03:20.080Z,3.10
2022-11-02T03:06:03.006Z,4.15
2022-11-02T03:08:30.795Z,3.00
2022-11-02T03:11:10.166Z,3.28
2022-11-02T03:14:06.432Z,3.20
2022-11-02T03:19:44.281Z,3.28
2022-11-02T03:22:35.641Z,3.13
2022-11-02T03:25:13.229Z,3.35
2022-11-02T03:28:20.785Z,3.28
2022-11-02T03:30:57.694Z,3.55
2022-11-02T03:33:34.498Z,3.40
2022-11-02T03:36:15.949Z,3.15
2022-11-02T03:39:10.235Z,3.90
2022-11-02T03:41:39.430Z,3.63
2022-11-02T03:44:17.252Z,3.50
2022-11-02T03:46:44.690Z,3.67
2022-11-02T03:49:15.466Z,4.60
2022-11-02T03:51:45.162Z,4.03
2022-11-02T03:54:36.046Z,4.80
2022-11-02T04:02:03.289Z,3.85
2022-11-02T04:04:29.823Z,4.35
2022-11-02T04:06:56.757Z,4.13
2022-11-02T04:09:23.194Z,4.13
2022-11-02T04:12:08.066Z,4.05
2022-11-02T04:14:41.001Z,3.60
2022-11-02T04:20:00.490Z,4.50
2022-11-02T04:22:55.911Z,4.35
2022-11-02T04:25:22.970Z,4.30
2022-11-02T04:27:53.448Z,4.30
2022-11-02T04:30:22.386Z,4.57
2022-11-02T04:33:09.341Z,4.85
2022-11-02T04:35:37.459Z,3.90
2022-11-02T04:38:22.518Z,3.65
2022-11-02T04:40:51.018Z,3.80
2022-11-02T04:43:17.393Z,5.03
2022-11-02T04:45:43.775Z,4.25
2022-11-02T04:48:10.295Z,4.70
2022-11-02T04:50:37.247Z,4.05
2022-11-02T04:53:07.040Z,3.90
2022-11-02T04:55:34.579Z,4.18
2022-11-02T04:58:01.191Z,4.13
2022-11-02T05:00:27.767Z,4.53
2022-11-02T05:02:54.236Z,4.57
2022-11-02T05:05:20.801Z,6.00
2022-11-02T05:07:47.203Z,6.95
2022-11-02T05:10:13.669Z,6.30
2022-11-02T05:12:40.083Z,6.82
2022-11-02T05:15:06.835Z,6.90
2022-11-02T05:17:33.443Z,6.70
2022-11-02T05:19:59.873Z,6.38
2022-11-02T05:22:26.300Z,7.50
2022-11-02T05:24:52.694Z,6.05
2022-11-02T05:27:19.109Z,7.20
2022-11-02T05:29:45.520Z,6.60
2022-11-02T05:32:11.959Z,7.18
2022-11-02T05:34:38.352Z,6.47
2022-11-02T05:37:04.752Z,6.30
2022-11-02T05:39:31.242Z,7.03
2022-11-02T05:41:57.637Z,6.05
2022-11-02T05:44:24.042Z,5.93
2022-11-02T05:46:50.439Z,5.85
2022-11-02T05:49:16.825Z,5.55
2022-11-02T05:51:44.061Z,6.68
2022-11-02T05:54:10.499Z,5.57
2022-11-02T05:56:36.886Z,6.68
2022-11-02T05:59:03.313Z,5.70
2022-11-02T06:01:29.749Z,5.03
2022-11-02T06:03:56.598Z,5.45
2022-11-02T06:06:23.038Z,6.47
2022-11-02T06:08:49.774Z,6.68
2022-11-02T06:11:16.634Z,6.72
2022-11-02T06:13:43.125Z,7.43
2022-11-02T06:16:12.142Z,6.57
2022-11-02T06:18:39.225Z,6.90
2022-11-02T06:21:06.097Z,7.03
2022-11-02T06:23:32.982Z,6.63
2022-11-02T06:26:00.529Z,7.25
2022-11-02T06:28:27.786Z,6.32
2022-11-02T06:30:54.340Z,6.55
2022-11-02T06:33:21.382Z,5.82
2022-11-02T06:35:49.773Z,6.53
2022-11-02T06:38:16.972Z,5.97
2022-11-02T06:40:44.137Z,6.43
2022-11-02T06:43:16.511Z,6.90
2022-11-02T06:45:43.690Z,7.10
2022-11-02T06:48:10.084Z,7.47
2022-11-02T06:50:36.470Z,6.65
2022-11-02T06:53:03.802Z,7.13
2022-11-02T06:55:30.546Z,5.93
2022-11-02T06:57:56.980Z,6.32
2022-11-02T07:00:24.119Z,7.43
2022-11-02T07:03:09.454Z,6.40
2022-11-02T07:05:36.878Z,6.47
2022-11-02T07:08:04.809Z,6.45
2022-11-02T07:10:31.998Z,6.50
2022-11-02T07:12:58.610Z,8.35
2022-11-02T07:15:26.347Z,7.25
2022-11-02T07:17:53.186Z,6.78
2022-11-02T07:20:20.036Z,5.88
2022-11-02T07:22:57.777Z,6.72
2022-11-02T07:25:25.329Z,6.13
2022-11-02T07:27:51.731Z,6.50
2022-11-02T07:30:18.439Z,6.72
2022-11-02T07:32:46.097Z,6.80
2022-11-02T07:35:14.154Z,6.50
2022-11-02T07:37:41.571Z,6.85
2022-11-02T07:40:10.251Z,6.47
2022-11-02T07:42:36.679Z,7.00
2022-11-02T07:45:03.324Z,7.43
2022-11-02T07:47:30.831Z,7.13
2022-11-02T07:49:59.569Z,7.10
2022-11-02T07:52:25.976Z,7.28
2022-11-02T07:54:52.424Z,7.25
2022-11-02T07:57:18.855Z,6.55
2022-11-02T07:59:45.250Z,6.70
2022-11-02T08:02:13.571Z,6.22
2022-11-02T08:04:43.840Z,6.18
2022-11-02T08:07:11.523Z,6.13
2022-11-02T08:09:37.916Z,5.00
2022-11-02T08:12:04.443Z,6.18
2022-11-02T08:14:30.854Z,4.85
2022-11-02T08:16:57.246Z,4.38
2022-11-02T08:19:23.716Z,5.00
2022-11-02T08:21:50.272Z,3.53
2022-11-02T08:24:16.720Z,3.58
2022-11-02T08:26:45.327Z,2.67
2022-11-02T08:29:14.376Z,2.67
2022-11-02T08:31:40.772Z,2.90
2022-11-02T08:34:07.423Z,2.30
2022-11-02T08:36:36.655Z,2.75
2022-11-02T08:39:03.531Z,2.30
2022-11-02T08:41:29.963Z,2.05
2022-11-02T08:43:57.434Z,2.10
2022-11-02T08:46:23.955Z,2.25
2022-11-02T08:48:50.757Z,2.13
2022-11-02T08:51:17.154Z,2.30
2022-11-02T08:53:48.609Z,2.33
2022-11-02T08:56:17.784Z,2.30
2022-11-02T08:58:44.185Z,1.73
2022-11-02T09:01:10.665Z,2.00
2022-11-02T09:03:37.260Z,2.63
2022-11-02T09:06:03.851Z,1.75
2022-11-02T09:08:30.736Z,1.90
2022-11-02T09:11:02.642Z,1.40
2022-11-02T09:13:29.547Z,1.48
2022-11-02T09:15:58.003Z,1.67
2022-11-02T09:18:24.477Z,1.65
2022-11-02T09:20:51.527Z,1.90
2022-11-02T09:23:19.462Z,1.75
2022-11-02T09:25:46.181Z,1.25
2022-11-02T09:28:13.953Z,1.33
2022-11-02T09:30:40.434Z,1.35
2022-11-02T09:33:07.714Z,1.35
2022-11-02T09:35:36.899Z,1.05
2022-11-02T09:38:03.868Z,1.55
2022-11-02T09:40:36.663Z,1.50
2022-11-02T09:43:09.284Z,1.67
2022-11-02T09:45:42.222Z,1.52
2022-11-02T09:48:23.332Z,1.08
2022-11-02T09:51:19.843Z,1.75
2022-11-02T09:54:08.588Z,1.47
2022-11-02T09:56:37.520Z,1.20
2022-11-02T09:59:11.772Z,1.77
2022-11-02T10:01:57.762Z,2.05
2022-11-02T10:04:29.972Z,1.20
2022-11-02T10:07:10.335Z,1.85
2022-11-02T10:09:51.531Z,1.23
2022-11-02T10:12:42.634Z,1.95
2022-11-02T10:15:17.263Z,1.20
2022-11-02T10:17:46.194Z,2.08
2022-11-02T10:20:32.532Z,1.58
2022-11-02T10:23:03.665Z,1.50
2022-11-02T10:25:30.503Z,1.83
2022-11-02T10:28:05.035Z,1.15
2022-11-02T10:30:32.235Z,1.60
2022-11-02T10:32:59.317Z,1.38
2022-11-02T10:36:18.415Z,1.35
2022-11-02T10:39:13.634Z,1.13
2022-11-02T10:42:17.021Z,1.15
2022-11-02T10:44:56.238Z,1.33
2022-11-02T10:47:33.343Z,1.25
2022-11-02T10:50:14.022Z,1.23
2022-11-02T10:52:44.870Z,1.40
2022-11-02T10:55:21.356Z,1.40
2022-11-02T10:57:48.923Z,8.20
2022-11-02T11:00:34.709Z,2.72
2022-11-02T11:03:06.406Z,8.68
2022-11-02T11:05:34.913Z,6.85
2022-11-02T11:08:02.606Z,5.72
2022-11-02T11:10:36.523Z,4.88
2022-11-02T11:13:04.027Z,1.90
2022-11-02T11:15:49.743Z,2.28
2022-11-02T11:21:07.598Z,2.58
2022-11-02T11:23:34.135Z,2.22
2022-11-02T11:26:01.909Z,2.60
2022-11-02T11:28:55.039Z,2.13
2022-11-02T11:31:22.092Z,2.45
2022-11-02T11:33:51.363Z,2.03
2022-11-02T11:38:55.351Z,1.75
2022-11-02T11:41:22.631Z,1.33
2022-11-02T11:43:51.922Z,1.67
2022-11-02T11:46:18.469Z,1.45
2022-11-02T11:48:52.150Z,1.60
2022-11-02T11:51:26.284Z,1.90
2022-11-02T11:54:05.379Z,1.70
2022-11-02T11:56:32.483Z,1.63
2022-11-02T11:58:59.322Z,1.25
2022-11-02T12:01:25.790Z,1.42
2022-11-02T12:04:01.441Z,1.40
2022-11-02T12:06:45.750Z,1.48
2022-11-02T12:10:01.644Z,1.52
2022-11-02T12:12:42.750Z,1.58
2022-11-02T12:15:44.856Z,1.55
2022-11-02T12:18:48.478Z,1.50
2022-11-02T12:24:12.465Z,1.38
2022-11-02T12:27:15.533Z,1.13
2022-11-02T12:29:53.597Z,1.65
2022-11-02T12:32:38.670Z,1.17
2022-11-02T12:35:28.261Z,1.30
2022-11-02T12:38:10.563Z,1.25
2022-11-02T12:41:07.302Z,1.13
2022-11-02T12:43:48.752Z,1.10
2022-11-02T12:46:17.977Z,1.60
2022-11-02T12:49:11.363Z,1.30
2022-11-02T12:54:15.601Z,1.70
2022-11-02T12:56:51.288Z,1.75
2022-11-02T12:59:29.554Z,1.75
2022-11-02T13:02:10.369Z,1.27
2022-11-02T13:04:58.173Z,1.65
2022-11-02T13:07:42.796Z,1.25
2022-11-02T13:10:19.569Z,1.70
2022-11-02T13:12:50.255Z,2.67
2022-11-02T13:15:21.476Z,2.22
2022-11-02T13:17:54.515Z,1.83
2022-11-02T13:22:58.028Z,1.70
2022-11-02T13:25:48.592Z,1.58
2022-11-02T13:28:25.244Z,1.50
2022-11-02T13:30:53.098Z,2.20
2022-11-02T13:33:26.695Z,2.15
2022-11-02T13:35:54.238Z,2.13
2022-11-02T13:39:03.196Z,1.38
2022-11-02T13:42:19.255Z,1.83
2022-11-02T13:45:10.202Z,1.50
2022-11-02T13:48:02.147Z,1.90
2022-11-02T13:50:33.239Z,1.63
2022-11-02T13:53:05.184Z,2.42
2022-11-02T13:56:00.992Z,1.33
2022-11-02T13:58:31.429Z,1.70
2022-11-02T14:01:07.921Z,1.80
2022-11-02T14:03:46.541Z,1.60
2022-11-02T14:06:15.677Z,1.58
2022-11-02T14:09:04.015Z,1.45
2022-11-02T14:11:44.914Z,1.33
2022-11-02T14:14:11.241Z,1.48
2022-11-02T14:16:50.375Z,1.40
2022-11-02T14:19:32.195Z,2.53
2022-11-02T14:21:58.820Z,1.63
2022-11-02T14:24:34.550Z,1.38
2022-11-02T14:27:02.327Z,1.40
2022-11-02T14:29:49.959Z,1.40
2022-11-02T14:32:23.878Z,1.17
2022-11-02T14:35:09.195Z,1.42
2022-11-02T14:38:04.765Z,1.50
2022-11-02T14:40:47.534Z,2.05
2022-11-02T14:43:43.349Z,2.05
2022-11-02T14:46:24.731Z,1.40
2022-11-02T14:48:55.086Z,1.10
2022-11-02T14:51:28.452Z,1.95
2022-11-02T14:54:14.033Z,1.80
2022-11-02T14:56:49.566Z,1.67
2022-11-02T14:59:28.999Z,1.80
2022-11-02T15:02:42.009Z,1.48
2022-11-02T15:05:22.854Z,1.08
2022-11-02T15:07:59.750Z,2.08
2022-11-02T15:10:32.196Z,1.73
2022-11-02T15:13:20.552Z,2.05
2022-11-02T15:15:56.082Z,2.03
2022-11-02T15:18:37.067Z,1.70
2022-11-02T15:21:17.695Z,1.55
2022-11-02T15:24:02.229Z,1.58
2022-11-02T15:26:48.631Z,1.60
2022-11-02T15:29:25.602Z,1.50
2022-11-02T15:31:55.913Z,2.08
2022-11-02T15:34:35.925Z,2.53
2022-11-02T15:37:03.465Z,2.63
2022-11-02T15:39:31.178Z,2.67
2022-11-02T15:42:06.585Z,2.03
2022-11-02T15:44:42.362Z,2.03
2022-11-02T15:47:23.966Z,2.50
2022-11-02T15:50:10.106Z,2.75
2022-11-02T15:53:22.432Z,3.20
2022-11-02T15:56:07.838Z,3.65
2022-11-02T15:58:56.030Z,3.70
2022-11-02T16:01:25.095Z,4.82
2022-11-02T16:03:58.839Z,5.38
2022-11-02T16:06:31.915Z,3.80
2022-11-02T16:09:03.449Z,3.53
2022-11-02T16:11:29.898Z,2.75
2022-11-02T16:14:18.310Z,2.83
2022-11-02T16:16:49.719Z,1.63
2022-11-02T16:19:20.708Z,1.77
2022-11-02T16:21:49.018Z,2.03
2022-11-02T16:24:16.594Z,2.42
2022-11-02T16:26:45.229Z,1.60
2022-11-02T16:29:15.846Z,1.20
2022-11-02T16:31:43.770Z,2.30
2022-11-02T16:34:33.883Z,2.03
2022-11-02T16:37:07.314Z,2.20
2022-11-02T16:39:39.709Z,2.88
2022-11-02T16:42:26.524Z,2.60
2022-11-02T16:44:59.277Z,2.97
2022-11-02T16:47:36.644Z,1.90
2022-11-02T16:50:04.802Z,2.00
2022-11-02T16:52:34.283Z,3.03
2022-11-02T16:55:04.321Z,2.75
2022-11-02T16:57:44.274Z,2.92
2022-11-02T17:00:20.157Z,2.60
2022-11-02T17:02:47.674Z,2.38
2022-11-02T17:05:17.998Z,3.30
2022-11-02T17:07:57.460Z,3.35
2022-11-02T17:10:26.742Z,2.88
2022-11-02T17:12:54.359Z,2.45
2022-11-02T17:15:23.380Z,2.58
2022-11-02T17:17:50.523Z,2.15
2022-11-02T17:20:20.935Z,2.63
2022-11-02T17:22:55.413Z,2.40
2022-11-02T17:25:23.362Z,2.58
2022-11-02T17:27:51.332Z,2.80
2022-11-02T17:30:29.759Z,2.78
2022-11-02T17:32:58.067Z,2.70
2022-11-02T17:35:27.422Z,3.35
2022-11-02T17:37:54.306Z,2.00
2022-11-02T17:40:21.832Z,2.72
2022-11-02T17:43:00.883Z,2.78
2022-11-02T17:45:37.447Z,3.13
2022-11-02T17:48:06.251Z,2.53
2022-11-02T17:50:37.744Z,6.95
2022-11-02T17:53:05.992Z,2.72
2022-11-02T17:55:34.638Z,2.50
2022-11-02T17:58:01.308Z,2.40
2022-11-02T18:00:28.765Z,3.20
2022-11-02T18:02:58.378Z,2.88
2022-11-02T18:05:35.232Z,2.67
2022-11-02T18:08:03.033Z,3.20
2022-11-02T18:10:51.308Z,3.05
2022-11-02T18:13:20.362Z,2.35
2022-11-02T18:15:47.530Z,2.70
2022-11-02T18:18:14.082Z,2.47
2022-11-02T18:20:41.996Z,2.42
2022-11-02T18:23:15.799Z,2.75
2022-11-02T18:25:42.647Z,2.60
2022-11-02T18:28:09.244Z,2.90
2022-11-02T18:30:35.867Z,2.80
2022-11-02T18:33:02.854Z,3.33
2022-11-02T18:35:29.670Z,6.25
2022-11-02T18:37:56.605Z,4.82
2022-11-02T18:40:23.032Z,4.65
2022-11-02T18:42:49.871Z,4.22
2022-11-02T18:45:16.536Z,4.38
2022-11-02T18:47:43.443Z,4.28
2022-11-02T18:50:12.295Z,4.10
2022-11-02T18:52:38.831Z,4.10
2022-11-02T18:55:05.905Z,4.60
2022-11-02T18:57:32.823Z,3.90
2022-11-02T18:59:59.742Z,4.22
2022-11-02T19:02:26.445Z,4.50
2022-11-02T19:04:52.938Z,3.95
2022-11-02T19:07:38.248Z,4.25
2022-11-02T19:10:05.137Z,5.03
2022-11-02T19:12:31.848Z,5.05
2022-11-02T19:14:58.518Z,4.70
2022-11-02T19:17:26.867Z,4.63
2022-11-02T19:19:53.826Z,4.75
2022-11-02T19:22:22.735Z,5.40
2022-11-02T19:24:49.735Z,4.93
2022-11-02T19:27:25.426Z,5.30
2022-11-02T19:29:52.473Z,4.93
2022-11-02T19:32:19.582Z,5.20
2022-11-02T19:34:46.376Z,6.00
2022-11-02T19:37:13.071Z,5.90
2022-11-02T19:39:39.746Z,5.15
2022-11-02T19:42:07.435Z,5.82
2022-11-02T19:44:39.587Z,5.72
2022-11-02T19:47:08.640Z,6.05
2022-11-02T19:49:35.031Z,5.28
2022-11-02T19:52:01.456Z,4.82
2022-11-02T19:54:27.871Z,7.35
2022-11-02T19:56:54.323Z,6.20
2022-11-02T19:59:20.773Z,5.57
2022-11-02T20:01:48.367Z,7.85
2022-11-02T20:04:14.869Z,6.53
2022-11-02T20:06:43.170Z,7.00
2022-11-02T20:09:18.811Z,7.28
2022-11-02T20:11:46.884Z,6.88
2022-11-02T20:14:15.049Z,7.85
2022-11-02T20:16:42.197Z,7.00
2022-11-02T20:19:09.244Z,7.22
2022-11-02T20:21:41.547Z,6.13
2022-11-02T20:24:10.165Z,7.35
2022-11-02T20:26:38.752Z,6.25
2022-11-02T20:29:06.711Z,7.53
2022-11-02T20:31:35.939Z,6.65
2022-11-02T20:34:04.466Z,6.60
2022-11-02T20:36:31.156Z,6.13
2022-11-02T20:38:58.049Z,8.23
2022-11-02T20:41:26.105Z,8.27
2022-11-02T20:43:55.465Z,6.57
2022-11-02T20:46:37.663Z,7.68
2022-11-02T20:49:19.920Z,9.35
2022-11-02T20:51:51.848Z,5.90
2022-11-02T20:54:21.863Z,5.07
2022-11-02T20:56:49.582Z,5.38
2022-11-02T20:59:16.171Z,5.80
2022-11-02T21:01:42.815Z,4.97
2022-11-02T21:04:09.389Z,6.15
2022-11-02T21:06:35.799Z,5.20
2022-11-02T21:09:08.984Z,5.18
2022-11-02T21:11:55.833Z,4.68
2022-11-02T21:14:23.269Z,5.78
2022-11-02T21:16:49.660Z,5.82
2022-11-02T21:19:16.108Z,6.22
2022-11-02T21:21:42.495Z,6.03
2022-11-02T21:24:09.868Z,5.28
2022-11-02T21:26:36.570Z,7.22
2022-11-02T21:29:03.327Z,6.95
2022-11-02T21:31:29.740Z,7.80
2022-11-02T21:33:56.151Z,6.93
2022-11-02T21:36:22.559Z,8.05
2022-11-02T21:38:48.996Z,5.95
2022-11-02T21:41:19.583Z,6.60
2022-11-02T21:43:46.041Z,6.32
2022-11-02T21:46:12.530Z,7.30
2022-11-02T21:48:39.232Z,5.68
2022-11-02T21:51:18.612Z,6.43
2022-11-02T21:53:46.555Z,6.25
2022-11-02T21:56:15.348Z,5.80
2022-11-02T21:58:44.876Z,6.07
2022-11-02T22:01:37.311Z,6.72
2022-11-02T22:04:04.672Z,5.68
2022-11-02T22:06:32.071Z,5.28
2022-11-02T22:08:59.658Z,5.88
2022-11-02T22:11:29.916Z,5.78
2022-11-02T22:13:58.503Z,5.85
2022-11-02T22:16:31.641Z,7.03
2022-11-02T22:19:00.062Z,5.78
2022-11-02T22:21:29.119Z,5.53
2022-11-02T22:23:56.605Z,6.10
2022-11-02T22:26:25.624Z,5.82
2022-11-02T22:28:53.100Z,5.30
2022-11-02T22:31:22.509Z,5.22
2022-11-02T22:33:51.777Z,5.53
2022-11-02T22:36:21.341Z,5.55
2022-11-02T22:38:48.351Z,5.15
2022-11-02T22:41:15.857Z,4.60
2022-11-02T22:43:42.995Z,5.60
2022-11-02T22:46:10.141Z,5.13
2022-11-02T22:48:36.781Z,4.82
2022-11-02T22:51:05.979Z,5.47
2022-11-02T22:53:33.225Z,5.55
2022-11-02T22:56:02.464Z,6.10
2022-11-02T22:58:31.251Z,5.03
2022-11-02T23:00:57.772Z,5.47
2022-11-02T23:03:24.427Z,5.05
2022-11-02T23:05:50.847Z,5.88
2022-11-02T23:08:18.256Z,5.70
2022-11-02T23:11:03.842Z,5.78
2022-11-02T23:13:30.255Z,5.95
2022-11-02T23:16:22.390Z,5.72
2022-11-02T23:19:10.558Z,4.95
2022-11-02T23:21:38.859Z,5.15
2022-11-02T23:24:24.155Z,5.53
2022-11-02T23:26:50.661Z,5.70
2022-11-02T23:29:35.859Z,5.13
2022-11-02T23:32:20.845Z,5.93
2022-11-02T23:35:05.642Z,6.18
2022-11-02T23:37:32.077Z,6.90
2022-11-02T23:39:58.510Z,6.22
2022-11-02T23:42:24.905Z,6.88
2022-11-02T23:44:51.541Z,6.07
2022-11-02T23:47:18.003Z,5.45
2022-11-02T23:49:44.405Z,6.80
2022-11-02T23:52:33.119Z,6.32
2022-11-02T23:55:18.045Z,5.90
2022-11-02T23:57:44.525Z,6.38
